createdAt,value
2022-11-27T00:05:07.667Z,81.65
2022-11-27T00:20:14.339Z,81.96
2022-11-27T00:35:21.393Z,81.84
2022-11-27T00:50:26.909Z,81.85
2022-11-27T01:05:31.787Z,81.84
2022-11-27T01:20:40.494Z,81.63
2022-11-27T01:35:57.566Z,81.72
2022-11-27T01:51:01.978Z,82.22
2022-11-27T02:06:06.974Z,81.62
2022-11-27T02:21:48.379Z,81.50
2022-11-27T02:37:14.306Z,82.01
2022-11-27T02:52:33.707Z,81.88
2022-11-27T03:07:47.536Z,82.05
2022-11-27T03:23:05.859Z,82.03
2022-11-27T03:38:10.166Z,81.71
2022-11-27T03:53:42.430Z,81.92
2022-11-27T04:08:48.104Z,82.26
2022-11-27T04:24:06.759Z,82.02
2022-11-27T04:39:25.020Z,81.57
2022-11-27T04:54:29.523Z,82.12
2022-11-27T05:09:47.988Z,82.35
2022-11-27T05:24:52.654Z,82.30
2022-11-27T05:40:11.159Z,82.47
2022-11-27T05:55:15.591Z,82.30
2022-11-27T06:10:20.020Z,82.41
2022-11-27T06:41:20.489Z,82.46
2022-11-27T06:56:28.173Z,82.98
2022-11-27T07:11:33.932Z,82.48
2022-11-27T07:26:52.699Z,82.89
2022-11-27T07:42:00.088Z,82.92
2022-11-27T07:57:10.751Z,82.76
2022-11-27T08:12:16.267Z,82.59
2022-11-27T08:27:21.356Z,82.84
2022-11-27T08:42:26.468Z,82.68
2022-11-27T08:57:31.569Z,82.94
2022-11-27T09:12:41.939Z,83.11
2022-11-27T09:27:48.769Z,82.97
2022-11-27T10:01:00.380Z,82.53
2022-11-27T10:29:14.941Z,83.23
2022-11-27T10:44:32.803Z,82.60
2022-11-27T11:00:02.116Z,82.08
2022-11-27T11:15:12.427Z,81.78
2022-11-27T11:30:28.855Z,81.20
2022-11-27T11:45:35.354Z,81.41
2022-11-27T12:01:25.499Z,81.38
2022-11-27T12:24:03.273Z,80.07
2022-11-27T12:39:18.759Z,79.43
2022-11-27T12:54:38.729Z,75.73
2022-11-27T13:10:11.537Z,75.33
2022-11-27T13:25:17.227Z,76.77
2022-11-27T13:40:58.879Z,77.56
2022-11-27T13:56:09.058Z,78.24
2022-11-27T14:11:14.261Z,79.52
2022-11-27T14:26:25.739Z,79.70
2022-11-27T14:41:44.655Z,79.93
2022-11-27T14:56:50.297Z,79.88
2022-11-27T15:12:07.029Z,80.44
2022-11-27T15:27:14.809Z,80.54
2022-11-27T15:42:21.784Z,80.33
2022-11-27T15:57:26.789Z,80.56
2022-11-27T16:12:31.502Z,81.07
2022-11-27T16:27:36.824Z,79.94
2022-11-27T16:42:42.536Z,80.93
2022-11-27T16:57:47.868Z,80.96
2022-11-27T17:12:53.283Z,81.05
2022-11-27T17:28:01.134Z,81.31
2022-11-27T17:43:08.143Z,81.43
2022-11-27T17:58:13.770Z,81.21
2022-11-27T18:24:59.828Z,81.97
2022-11-27T18:40:13.161Z,82.23
2022-11-27T18:55:17.833Z,81.85
2022-11-27T19:10:22.292Z,81.72
2022-11-27T19:25:26.917Z,81.50
2022-11-27T19:40:32.919Z,81.33
2022-11-27T19:55:55.910Z,81.82
2022-11-27T20:11:02.107Z,82.12
2022-11-27T20:26:14.772Z,82.19
2022-11-27T20:41:21.497Z,82.51
2022-11-27T20:56:26.607Z,82.59
2022-11-27T21:11:34.186Z,82.20
2022-11-27T21:26:38.599Z,82.39
2022-11-27T21:41:43.291Z,82.29
2022-11-27T21:56:51.905Z,82.04
2022-11-27T22:11:56.723Z,81.99
2022-11-27T22:27:00.945Z,82.43
2022-11-27T22:42:05.705Z,82.72
2022-11-27T22:57:10.586Z,82.03
2022-11-27T23:12:14.711Z,82.13
2022-11-27T23:27:19.093Z,82.70
2022-11-27T23:42:23.241Z,82.81
2022-11-27T23:57:27.527Z,83.43
